createdAt,value
2023-03-06T00:01:26.339Z,108.75
2023-03-06T00:04:09.607Z,113.00
2023-03-06T00:06:59.386Z,104.90
2023-03-06T00:09:47.642Z,107.40
2023-03-06T00:12:30.370Z,114.95
2023-03-06T00:15:13.694Z,108.73
2023-03-06T00:18:03.383Z,111.07
2023-03-06T00:20:46.194Z,111.55
2023-03-06T00:23:35.407Z,99.57
2023-03-06T00:26:23.717Z,103.32
2023-03-06T00:29:06.355Z,109.38
2023-03-06T00:31:49.092Z,112.07
2023-03-06T00:34:38.344Z,106.28
2023-03-06T00:37:27.610Z,110.05
2023-03-06T00:40:10.415Z,111.10
2023-03-06T00:42:58.753Z,103.10
2023-03-06T00:45:41.433Z,122.40
2023-03-06T00:48:29.866Z,115.60
2023-03-06T00:51:13.997Z,111.70
2023-03-06T00:54:02.656Z,105.97
2023-03-06T00:56:45.370Z,111.82
2023-03-06T00:59:33.604Z,111.10
2023-03-06T01:02:16.362Z,104.18
2023-03-06T01:05:05.389Z,117.90
2023-03-06T01:08:01.181Z,111.88
2023-03-06T01:10:50.386Z,108.05
2023-03-06T01:13:39.456Z,127.63
2023-03-06T01:16:29.641Z,140.57
2023-03-06T01:19:12.509Z,153.40
2023-03-06T01:22:02.428Z,157.23
2023-03-06T01:24:44.663Z,132.43
2023-03-06T01:27:33.364Z,148.65
2023-03-06T01:30:19.627Z,138.15
2023-03-06T01:33:09.320Z,119.68
2023-03-06T01:35:51.744Z,127.32
2023-03-06T01:38:40.403Z,127.43
2023-03-06T01:41:23.678Z,129.35
2023-03-06T01:44:12.345Z,116.00
2023-03-06T01:46:55.680Z,108.30
2023-03-06T01:49:48.379Z,111.95
2023-03-06T01:52:36.641Z,95.95
2023-03-06T01:55:30.417Z,105.30
2023-03-06T01:58:25.424Z,88.30
2023-03-06T02:01:31.246Z,88.95
2023-03-06T02:04:20.314Z,92.40
2023-03-06T02:07:12.435Z,78.07
2023-03-06T02:10:00.579Z,79.32
2023-03-06T02:12:45.383Z,82.75
2023-03-06T02:15:37.380Z,76.65
2023-03-06T02:18:26.488Z,80.55
2023-03-06T02:21:14.908Z,70.97
2023-03-06T02:24:19.357Z,73.75
2023-03-06T02:27:04.369Z,69.82
2023-03-06T02:29:54.404Z,68.68
2023-03-06T02:32:36.629Z,67.55
2023-03-06T02:35:38.466Z,64.63
2023-03-06T02:38:30.334Z,79.13
2023-03-06T02:41:16.682Z,74.05
2023-03-06T02:44:05.444Z,58.88
2023-03-06T02:46:47.656Z,63.25
2023-03-06T02:49:36.648Z,74.57
2023-03-06T02:52:19.639Z,61.08
2023-03-06T02:55:08.367Z,66.83
2023-03-06T02:57:57.386Z,70.43
2023-03-06T03:00:46.328Z,61.03
2023-03-06T03:03:29.688Z,65.65
2023-03-06T03:06:21.441Z,61.65
2023-03-06T03:09:09.691Z,69.40
2023-03-06T03:11:53.381Z,72.28
2023-03-06T03:14:42.429Z,81.55
2023-03-06T03:17:24.705Z,77.70
2023-03-06T03:20:15.379Z,72.00
2023-03-06T03:23:00.643Z,79.65
2023-03-06T03:25:49.382Z,71.72
2023-03-06T03:28:38.274Z,62.67
2023-03-06T03:31:29.462Z,76.07
2023-03-06T03:34:13.028Z,73.35
2023-03-06T03:37:02.420Z,72.97
2023-03-06T03:39:46.674Z,84.97
2023-03-06T03:42:36.328Z,69.75
2023-03-06T03:45:26.348Z,78.25
2023-03-06T03:48:16.591Z,73.72
2023-03-06T03:50:59.711Z,73.65
2023-03-06T03:53:51.676Z,80.35
2023-03-06T03:56:37.408Z,75.78
2023-03-06T03:59:25.683Z,75.15
2023-03-06T04:02:40.381Z,83.93
2023-03-06T04:05:41.419Z,73.60
2023-03-06T04:08:25.750Z,75.50
2023-03-06T04:11:15.396Z,73.10
2023-03-06T04:13:57.647Z,82.18
2023-03-06T04:16:47.311Z,77.00
2023-03-06T04:19:36.398Z,74.15
2023-03-06T04:22:20.570Z,90.28
2023-03-06T04:27:52.595Z,83.40
2023-03-06T04:30:42.424Z,57.67
2023-03-06T04:33:25.714Z,78.43
2023-03-06T04:36:15.378Z,53.58
2023-03-06T04:39:05.749Z,65.03
2023-03-06T04:41:49.391Z,57.25
2023-03-06T04:44:31.714Z,53.67
2023-03-06T04:47:20.434Z,59.50
2023-03-06T04:50:08.667Z,47.25
2023-03-06T04:52:51.438Z,59.88
2023-03-06T04:58:22.700Z,53.95
2023-03-06T05:01:11.714Z,53.85
2023-03-06T05:03:54.309Z,48.30
2023-03-06T05:06:42.657Z,59.70
2023-03-06T05:09:31.367Z,51.53
2023-03-06T05:12:13.618Z,47.95
2023-03-06T05:15:02.412Z,48.65
2023-03-06T05:17:45.669Z,45.35
2023-03-06T05:20:36.418Z,55.78
2023-03-06T05:23:18.622Z,45.55
2023-03-06T05:26:07.288Z,49.47
2023-03-06T05:28:49.814Z,51.50
2023-03-06T05:31:38.416Z,43.80
2023-03-06T05:34:22.621Z,51.45
2023-03-06T05:37:11.411Z,48.28
2023-03-06T05:39:53.670Z,40.47
2023-03-06T05:42:42.346Z,36.90
2023-03-06T05:45:24.613Z,38.85
2023-03-06T05:48:14.413Z,43.53
2023-03-06T05:51:03.727Z,64.82
2023-03-06T05:53:52.410Z,46.78
2023-03-06T05:56:34.909Z,51.78
2023-03-06T05:59:23.384Z,51.22
2023-03-06T06:02:13.534Z,49.35
2023-03-06T06:05:01.635Z,46.55
2023-03-06T06:07:44.307Z,38.90
2023-03-06T06:10:33.626Z,29.70
2023-03-06T06:13:16.359Z,36.97
2023-03-06T06:16:05.400Z,40.65
2023-03-06T06:18:54.339Z,30.02
2023-03-06T06:21:36.601Z,24.73
2023-03-06T06:24:25.361Z,22.20
2023-03-06T06:27:08.292Z,22.48
2023-03-06T06:29:57.365Z,16.90
2023-03-06T06:32:40.214Z,20.45
2023-03-06T06:35:29.396Z,26.60
2023-03-06T06:38:17.585Z,16.25
2023-03-06T06:41:31.171Z,21.70
2023-03-06T06:44:08.766Z,21.88
2023-03-06T06:47:21.897Z,16.15
2023-03-06T06:52:43.826Z,17.35
2023-03-06T06:55:32.446Z,17.58
2023-03-06T06:58:14.650Z,21.65
2023-03-06T07:01:03.402Z,24.48
2023-03-06T07:03:52.363Z,20.23
2023-03-06T07:06:40.713Z,16.35
2023-03-06T07:09:30.321Z,25.13
2023-03-06T07:12:19.399Z,23.73
2023-03-06T07:15:08.052Z,20.65
2023-03-06T07:17:51.419Z,25.95
2023-03-06T07:20:39.574Z,27.27
2023-03-06T07:23:22.353Z,23.92
2023-03-06T07:26:11.383Z,27.00
2023-03-06T07:28:56.486Z,25.35
2023-03-06T07:31:45.405Z,31.33
2023-03-06T07:34:27.982Z,25.08
2023-03-06T07:37:18.349Z,28.85
2023-03-06T07:40:00.763Z,22.58
2023-03-06T07:42:49.392Z,17.15
2023-03-06T07:45:35.696Z,15.45
2023-03-06T07:48:24.332Z,22.50
2023-03-06T07:51:22.350Z,19.25
2023-03-06T07:54:11.632Z,23.55
2023-03-06T07:56:54.407Z,23.63
2023-03-06T07:59:42.656Z,20.05
2023-03-06T08:02:25.328Z,23.88
2023-03-06T08:05:15.692Z,26.48
2023-03-06T08:07:57.355Z,16.10
2023-03-06T08:10:52.407Z,17.08
2023-03-06T08:13:40.701Z,16.10
2023-03-06T08:16:23.311Z,15.50
2023-03-06T08:19:05.600Z,14.18
2023-03-06T08:21:54.356Z,19.85
2023-03-06T08:24:42.612Z,23.52
2023-03-06T08:27:24.358Z,13.75
2023-03-06T08:30:08.020Z,17.63
2023-03-06T08:32:57.396Z,14.93
2023-03-06T08:35:39.537Z,10.43
2023-03-06T08:38:28.348Z,11.35
2023-03-06T08:41:16.569Z,10.77
2023-03-06T08:43:59.335Z,15.38
2023-03-06T08:46:49.397Z,12.68
2023-03-06T08:49:31.721Z,18.65
2023-03-06T08:52:20.405Z,13.25
2023-03-06T08:55:04.594Z,14.68
2023-03-06T08:57:54.377Z,13.20
2023-03-06T09:00:36.687Z,8.73
2023-03-06T09:03:25.494Z,6.80
2023-03-06T09:06:07.613Z,14.73
2023-03-06T09:09:03.304Z,16.85
2023-03-06T09:11:52.754Z,15.55
2023-03-06T09:14:34.610Z,20.08
2023-03-06T09:17:23.486Z,12.82
2023-03-06T09:20:06.488Z,19.55
2023-03-06T09:22:55.353Z,16.80
2023-03-06T09:25:37.615Z,12.15
2023-03-06T09:28:26.424Z,15.77
2023-03-06T09:31:08.672Z,11.95
2023-03-06T09:33:57.309Z,12.18
2023-03-06T09:36:55.549Z,13.80
2023-03-06T09:39:46.394Z,14.80
2023-03-06T09:42:30.682Z,16.27
2023-03-06T09:45:21.496Z,9.82
2023-03-06T09:48:14.703Z,9.40
2023-03-06T09:51:08.305Z,6.10
2023-03-06T09:54:06.226Z,11.15
2023-03-06T09:56:58.307Z,8.23
2023-03-06T09:59:41.674Z,7.15
2023-03-06T10:02:54.411Z,7.00
2023-03-06T10:05:59.895Z,14.97
2023-03-06T10:09:15.355Z,12.63
2023-03-06T10:12:24.582Z,8.98
2023-03-06T10:15:28.452Z,11.00
2023-03-06T10:18:19.736Z,8.20
2023-03-06T10:21:19.121Z,7.03
2023-03-06T10:24:35.618Z,4.50
2023-03-06T10:27:39.414Z,12.15
2023-03-06T10:30:48.784Z,5.68
2023-03-06T10:33:38.316Z,5.13
2023-03-06T10:36:22.544Z,6.38
2023-03-06T10:39:13.353Z,5.78
2023-03-06T10:42:03.586Z,5.50
2023-03-06T10:44:46.361Z,6.63
2023-03-06T10:47:37.982Z,11.52
2023-03-06T10:50:42.635Z,9.35
2023-03-06T10:53:35.692Z,7.50
2023-03-06T10:56:18.305Z,10.93
2023-03-06T10:59:19.663Z,9.25
2023-03-06T11:02:07.335Z,7.15
2023-03-06T11:05:01.074Z,7.88
2023-03-06T11:07:44.331Z,7.38
2023-03-06T11:10:36.449Z,7.55
2023-03-06T11:13:32.620Z,9.18
2023-03-06T11:16:35.560Z,7.93
2023-03-06T11:19:35.345Z,8.77
2023-03-06T11:22:21.035Z,8.88
2023-03-06T11:25:11.325Z,11.15
2023-03-06T11:28:26.525Z,10.30
2023-03-06T11:31:18.948Z,11.25
2023-03-06T11:34:27.399Z,7.85
2023-03-06T11:37:32.045Z,9.75
2023-03-06T11:40:32.682Z,14.23
2023-03-06T11:43:28.668Z,11.98
2023-03-06T11:46:36.361Z,13.32
2023-03-06T11:49:47.411Z,10.82
2023-03-06T11:52:47.845Z,8.63
2023-03-06T11:55:54.349Z,9.95
2023-03-06T11:58:57.310Z,10.27
2023-03-06T12:01:58.603Z,13.17
2023-03-06T12:04:47.302Z,13.98
2023-03-06T12:07:43.205Z,11.68
2023-03-06T12:11:04.292Z,12.20
2023-03-06T12:14:16.178Z,7.68
2023-03-06T12:17:14.410Z,9.75
2023-03-06T12:20:23.287Z,12.43
2023-03-06T12:23:39.315Z,7.28
2023-03-06T12:26:36.618Z,14.02
2023-03-06T12:29:37.386Z,12.32
2023-03-06T12:32:58.636Z,14.73
2023-03-06T12:36:03.397Z,9.73
2023-03-06T12:39:09.622Z,11.95
2023-03-06T12:42:23.400Z,10.13
2023-03-06T12:45:23.557Z,14.80
2023-03-06T12:48:07.336Z,11.45
2023-03-06T12:50:56.666Z,8.18
2023-03-06T12:53:42.351Z,10.85
2023-03-06T12:56:31.398Z,40.05
2023-03-06T12:59:13.602Z,15.43
2023-03-06T13:02:20.378Z,14.68
2023-03-06T13:05:27.383Z,14.88
2023-03-06T13:08:52.274Z,21.25
2023-03-06T13:12:08.290Z,15.77
2023-03-06T13:15:03.699Z,12.25
2023-03-06T13:17:46.382Z,23.88
2023-03-06T13:20:45.948Z,17.30
2023-03-06T13:23:43.320Z,19.27
2023-03-06T13:26:35.650Z,23.30
2023-03-06T13:29:42.846Z,21.05
2023-03-06T13:32:39.886Z,23.08
2023-03-06T13:35:50.414Z,23.17
2023-03-06T13:38:46.347Z,39.17
2023-03-06T13:41:31.749Z,24.23
2023-03-06T13:44:32.354Z,22.20
2023-03-06T13:47:27.766Z,22.77
2023-03-06T13:50:45.308Z,21.13
2023-03-06T13:53:45.974Z,23.70
2023-03-06T13:56:56.357Z,29.75
2023-03-06T14:00:09.660Z,36.55
2023-03-06T14:03:14.411Z,46.90
2023-03-06T14:05:59.954Z,33.10
2023-03-06T14:08:49.331Z,23.33
2023-03-06T14:11:39.767Z,29.90
2023-03-06T14:14:23.392Z,27.35
2023-03-06T14:17:14.724Z,31.10
2023-03-06T14:19:58.423Z,30.55
2023-03-06T14:22:47.633Z,30.08
2023-03-06T14:25:39.389Z,34.63
2023-03-06T14:28:34.782Z,31.45
2023-03-06T14:31:39.419Z,30.33
2023-03-06T14:34:32.492Z,43.80
2023-03-06T14:37:37.399Z,30.38
2023-03-06T14:40:42.563Z,40.63
2023-03-06T14:43:34.801Z,39.10
2023-03-06T14:46:22.568Z,32.72
2023-03-06T14:49:14.673Z,52.17
2023-03-06T14:52:07.565Z,37.22
2023-03-06T14:54:53.617Z,36.60
2023-03-06T14:57:42.291Z,30.85
2023-03-06T15:00:29.817Z,44.13
2023-03-06T15:03:31.521Z,41.83
2023-03-06T15:06:24.352Z,40.83
2023-03-06T15:09:32.369Z,34.00
2023-03-06T15:12:28.894Z,35.90
2023-03-06T15:15:18.477Z,38.97
2023-03-06T15:18:07.859Z,36.20
2023-03-06T15:21:00.593Z,44.05
2023-03-06T15:23:51.270Z,33.33
2023-03-06T15:26:43.879Z,46.97
2023-03-06T15:29:32.770Z,36.40
2023-03-06T15:32:41.732Z,42.63
2023-03-06T15:35:38.399Z,47.45
2023-03-06T15:38:51.344Z,50.85
2023-03-06T15:41:40.043Z,50.50
2023-03-06T15:44:30.651Z,48.13
2023-03-06T15:47:19.844Z,41.72
2023-03-06T15:50:02.469Z,34.70
2023-03-06T15:52:53.291Z,43.20
2023-03-06T15:55:36.268Z,35.35
2023-03-06T15:58:28.190Z,50.35
2023-03-06T16:01:11.363Z,36.90
2023-03-06T16:03:54.608Z,47.35
2023-03-06T16:09:49.381Z,53.88
2023-03-06T16:12:40.055Z,60.08
2023-03-06T16:15:29.774Z,52.70
2023-03-06T16:18:19.699Z,52.63
2023-03-06T16:21:04.016Z,43.28
2023-03-06T16:23:53.880Z,38.70
2023-03-06T16:26:42.399Z,50.13
2023-03-06T16:29:35.311Z,46.67
2023-03-06T16:32:19.870Z,56.58
2023-03-06T16:35:10.214Z,60.67
2023-03-06T16:37:55.916Z,61.03
2023-03-06T16:40:43.015Z,74.60
2023-03-06T16:43:33.337Z,84.05
2023-03-06T16:46:31.084Z,63.35
2023-03-06T16:49:14.923Z,52.92
2023-03-06T16:52:05.911Z,66.20
2023-03-06T16:54:49.999Z,51.78
2023-03-06T16:57:44.045Z,65.82
2023-03-06T17:00:34.824Z,59.50
2023-03-06T17:03:26.006Z,49.65
2023-03-06T17:06:09.960Z,45.67
2023-03-06T17:09:00.958Z,68.88
2023-03-06T17:11:48.358Z,58.15
2023-03-06T17:14:38.893Z,52.80
2023-03-06T17:17:22.769Z,47.00
2023-03-06T17:20:17.022Z,55.92
2023-03-06T17:23:01.363Z,51.08
2023-03-06T17:25:53.168Z,53.80
2023-03-06T17:28:43.811Z,50.83
2023-03-06T17:31:36.651Z,51.63
2023-03-06T17:37:34.372Z,59.63
2023-03-06T17:40:19.642Z,65.25
2023-03-06T17:43:10.019Z,54.97
2023-03-06T17:45:57.324Z,58.20
2023-03-06T17:48:48.291Z,52.65
2023-03-06T17:51:31.723Z,52.42
2023-03-06T17:54:20.348Z,51.63
2023-03-06T17:57:06.509Z,55.30
2023-03-06T17:59:57.798Z,56.08
2023-03-06T18:02:52.224Z,66.65
2023-03-06T18:05:44.086Z,58.58
2023-03-06T18:08:29.632Z,52.80
2023-03-06T18:11:21.068Z,57.60
2023-03-06T18:14:06.007Z,60.08
2023-03-06T18:16:56.897Z,55.08
2023-03-06T18:19:40.986Z,67.38
2023-03-06T18:25:13.592Z,47.28
2023-03-06T18:28:02.308Z,53.10
2023-03-06T18:30:48.296Z,52.08
2023-03-06T18:33:37.986Z,48.40
2023-03-06T18:36:22.237Z,42.53
2023-03-06T18:39:15.914Z,43.85
2023-03-06T18:41:59.043Z,42.90
2023-03-06T18:44:49.732Z,38.38
2023-03-06T18:47:33.605Z,43.10
2023-03-06T18:50:25.909Z,42.60
2023-03-06T18:53:10.584Z,36.72
2023-03-06T18:56:05.108Z,41.50
2023-03-06T18:58:50.599Z,38.45
2023-03-06T19:01:40.768Z,33.17
2023-03-06T19:04:24.924Z,36.47
2023-03-06T19:07:16.526Z,35.45
2023-03-06T19:10:05.961Z,29.33
2023-03-06T19:12:49.972Z,33.70
2023-03-06T19:15:39.689Z,37.65
2023-03-06T19:18:25.412Z,49.05
2023-03-06T19:21:34.668Z,44.28
2023-03-06T19:24:21.805Z,39.22
2023-03-06T19:27:12.723Z,31.75
2023-03-06T19:29:55.322Z,31.00
2023-03-06T19:32:46.882Z,29.45
2023-03-06T19:35:36.006Z,31.20
2023-03-06T19:38:25.992Z,40.85
2023-03-06T19:41:09.322Z,27.63
2023-03-06T19:44:11.676Z,30.13
2023-03-06T19:46:55.088Z,35.97
2023-03-06T19:49:46.971Z,35.25
2023-03-06T19:52:31.017Z,32.85
2023-03-06T19:58:03.944Z,36.63
2023-03-06T20:00:53.766Z,36.40
2023-03-06T20:03:35.898Z,47.75
2023-03-06T20:06:28.627Z,28.27
2023-03-06T20:09:24.231Z,33.15
2023-03-06T20:12:13.389Z,37.63
2023-03-06T20:15:03.461Z,38.13
2023-03-06T20:17:46.891Z,43.22
2023-03-06T20:20:36.930Z,40.47
2023-03-06T20:23:25.725Z,35.85
2023-03-06T20:26:13.497Z,35.45
2023-03-06T20:29:02.513Z,45.72
2023-03-06T20:31:52.271Z,59.90
2023-03-06T20:34:40.848Z,56.25
2023-03-06T20:37:23.363Z,46.63
2023-03-06T20:40:13.529Z,49.03
2023-03-06T20:42:56.350Z,54.20
2023-03-06T20:45:46.837Z,40.50
2023-03-06T20:48:29.300Z,33.72
2023-03-06T20:51:19.636Z,43.03
2023-03-06T20:54:09.333Z,36.15
2023-03-06T20:56:59.048Z,35.45
2023-03-06T20:59:42.306Z,34.38
2023-03-06T21:02:31.236Z,45.40
2023-03-06T21:05:13.908Z,38.38
2023-03-06T21:08:02.285Z,33.22
2023-03-06T21:11:00.324Z,38.13
2023-03-06T21:13:42.561Z,39.78
2023-03-06T21:16:34.279Z,41.95
2023-03-06T21:19:23.280Z,37.45
2023-03-06T21:22:12.259Z,33.03
2023-03-06T21:25:01.837Z,35.90
2023-03-06T21:27:43.665Z,44.60
2023-03-06T21:30:32.323Z,40.28
2023-03-06T21:33:14.632Z,36.88
2023-03-06T21:36:03.327Z,30.67
2023-03-06T21:38:45.631Z,29.48
2023-03-06T21:41:38.373Z,38.55
2023-03-06T21:44:20.883Z,36.65
2023-03-06T21:47:09.350Z,37.47
2023-03-06T21:49:51.616Z,40.40
2023-03-06T21:52:40.321Z,43.30
2023-03-06T21:55:23.652Z,34.92
2023-03-06T21:58:12.287Z,41.08
2023-03-06T22:00:54.593Z,43.25
2023-03-06T22:03:43.312Z,40.47
2023-03-06T22:06:28.544Z,36.72
2023-03-06T22:09:17.269Z,38.00
2023-03-06T22:12:00.032Z,40.70
2023-03-06T22:14:51.226Z,45.38
2023-03-06T22:17:33.604Z,38.67
2023-03-06T22:20:23.270Z,50.38
2023-03-06T22:23:05.600Z,42.05
2023-03-06T22:25:54.291Z,40.42
2023-03-06T22:28:36.585Z,44.97
2023-03-06T22:31:28.338Z,44.40
2023-03-06T22:34:10.555Z,43.88
2023-03-06T22:36:59.239Z,35.78
2023-03-06T22:39:41.556Z,38.78
2023-03-06T22:42:30.536Z,43.20
2023-03-06T22:45:13.666Z,40.95
2023-03-06T22:48:10.497Z,32.78
2023-03-06T22:50:53.568Z,39.97
2023-03-06T22:53:42.283Z,35.22
2023-03-06T22:56:27.524Z,34.75
2023-03-06T22:59:16.260Z,35.10
2023-03-06T23:02:05.297Z,48.25
2023-03-06T23:04:56.511Z,45.55
2023-03-06T23:07:39.256Z,30.48
2023-03-06T23:10:35.143Z,36.45
2023-03-06T23:13:42.309Z,38.72
2023-03-06T23:16:42.535Z,33.58
2023-03-06T23:19:49.284Z,44.40
2023-03-06T23:22:49.574Z,39.80
2023-03-06T23:25:57.273Z,43.55
2023-03-06T23:28:39.528Z,41.80
2023-03-06T23:31:36.264Z,40.50
2023-03-06T23:34:18.532Z,49.55
2023-03-06T23:37:07.343Z,52.25
2023-03-06T23:39:50.547Z,47.50
2023-03-06T23:42:39.494Z,46.35
2023-03-06T23:45:21.520Z,48.10
2023-03-06T23:48:10.289Z,47.80
2023-03-06T23:50:52.594Z,55.25
2023-03-06T23:53:41.339Z,54.65
2023-03-06T23:56:23.600Z,55.42
2023-03-06T23:59:12.266Z,48.53
